createdAt,value
2023-03-22T00:02:04.285Z,1.90
2023-03-22T00:04:31.284Z,1.92
2023-03-22T00:06:57.855Z,2.05
2023-03-22T00:09:24.387Z,2.20
2023-03-22T00:11:51.131Z,2.47
2023-03-22T00:14:18.685Z,2.00
2023-03-22T00:16:46.333Z,2.13
2023-03-22T00:19:12.986Z,1.80
2023-03-22T00:21:39.540Z,2.35
2023-03-22T00:24:06.546Z,2.35
2023-03-22T00:26:33.340Z,2.42
2023-03-22T00:29:00.742Z,2.60
2023-03-22T00:31:27.363Z,2.38
2023-03-22T00:33:53.951Z,1.77
2023-03-22T00:36:20.445Z,2.03
2023-03-22T00:38:46.950Z,2.28
2023-03-22T00:41:19.358Z,2.17
2023-03-22T00:43:47.518Z,2.00
2023-03-22T00:46:16.167Z,2.00
2023-03-22T00:48:42.872Z,1.70
2023-03-22T00:51:09.829Z,1.85
2023-03-22T00:53:36.964Z,1.80
2023-03-22T00:56:05.580Z,1.90
2023-03-22T00:58:32.571Z,1.80
2023-03-22T01:00:59.243Z,1.75
2023-03-22T01:03:25.938Z,2.40
2023-03-22T01:05:56.756Z,1.55
2023-03-22T01:08:23.959Z,1.35
2023-03-22T01:10:50.888Z,2.05
2023-03-22T01:13:18.119Z,2.25
2023-03-22T01:15:45.075Z,1.92
2023-03-22T01:18:11.763Z,2.33
2023-03-22T01:20:38.686Z,1.77
2023-03-22T01:23:06.201Z,1.70
2023-03-22T01:25:32.760Z,1.63
2023-03-22T01:27:59.346Z,1.60
2023-03-22T01:30:26.020Z,1.60
2023-03-22T01:32:52.636Z,2.10
2023-03-22T01:35:19.191Z,1.73
2023-03-22T01:37:45.826Z,1.90
2023-03-22T01:40:13.971Z,1.77
2023-03-22T01:42:40.887Z,1.70
2023-03-22T01:45:27.593Z,1.88
2023-03-22T01:48:08.835Z,1.67
2023-03-22T01:50:38.811Z,1.58
2023-03-22T01:53:08.158Z,1.45
2023-03-22T01:55:35.926Z,2.10
2023-03-22T01:58:04.342Z,1.52
2023-03-22T02:00:31.909Z,1.40
2023-03-22T02:02:58.908Z,1.70
2023-03-22T02:05:26.412Z,1.30
2023-03-22T02:07:53.184Z,1.52
2023-03-22T02:10:23.505Z,1.80
2023-03-22T02:13:11.870Z,1.77
2023-03-22T02:16:00.017Z,1.58
2023-03-22T02:18:57.004Z,1.52
2023-03-22T02:21:29.118Z,1.75
2023-03-22T02:24:20.755Z,1.55
2023-03-22T02:26:49.957Z,1.52
2023-03-22T02:29:22.583Z,1.35
2023-03-22T02:32:13.761Z,1.25
2023-03-22T02:35:08.294Z,1.45
2023-03-22T02:38:02.719Z,1.80
2023-03-22T02:40:39.896Z,1.48
2023-03-22T02:43:09.704Z,1.50
2023-03-22T02:45:50.946Z,1.48
2023-03-22T02:48:57.906Z,1.60
2023-03-22T02:51:33.230Z,1.95
2023-03-22T02:54:28.741Z,1.52
2023-03-22T02:57:11.881Z,1.92
2023-03-22T02:59:41.578Z,2.13
2023-03-22T03:02:11.802Z,1.65
2023-03-22T03:04:44.478Z,1.67
2023-03-22T03:07:14.325Z,1.73
2023-03-22T03:09:43.218Z,1.90
2023-03-22T03:12:34.054Z,2.20
2023-03-22T03:15:00.582Z,2.58
2023-03-22T03:18:04.627Z,2.10
2023-03-22T03:20:31.145Z,1.85
2023-03-22T03:23:07.274Z,2.03
2023-03-22T03:26:16.060Z,2.28
2023-03-22T03:29:01.688Z,2.38
2023-03-22T03:31:31.406Z,2.60
2023-03-22T03:34:14.437Z,2.28
2023-03-22T03:36:46.921Z,2.28
2023-03-22T03:39:16.466Z,2.60
2023-03-22T03:41:46.331Z,2.88
2023-03-22T03:44:13.887Z,2.28
2023-03-22T03:46:41.788Z,2.42
2023-03-22T03:49:10.079Z,2.53
2023-03-22T03:51:47.304Z,2.35
2023-03-22T03:54:13.918Z,2.20
2023-03-22T03:56:40.668Z,2.72
2023-03-22T03:59:08.320Z,2.65
2023-03-22T04:01:35.779Z,2.60
2023-03-22T04:04:02.438Z,2.67
2023-03-22T04:06:28.978Z,2.67
2023-03-22T04:08:56.621Z,2.75
2023-03-22T04:11:23.238Z,2.95
2023-03-22T04:13:49.760Z,2.80
2023-03-22T04:16:16.325Z,2.95
2023-03-22T04:18:42.887Z,2.88
2023-03-22T04:21:12.075Z,3.58
2023-03-22T04:23:38.819Z,3.25
2023-03-22T04:26:05.913Z,3.17
2023-03-22T04:28:33.480Z,3.65
2023-03-22T04:31:00.023Z,2.67
2023-03-22T04:33:26.671Z,2.58
2023-03-22T04:35:56.765Z,3.53
2023-03-22T04:38:25.250Z,2.95
2023-03-22T04:40:51.802Z,3.03
2023-03-22T04:43:18.970Z,3.00
2023-03-22T04:45:46.175Z,3.40
2023-03-22T04:48:12.863Z,3.30
2023-03-22T04:50:40.338Z,3.25
2023-03-22T04:53:07.764Z,3.83
2023-03-22T04:55:34.274Z,3.90
2023-03-22T04:58:01.120Z,3.15
2023-03-22T05:00:30.178Z,2.50
2023-03-22T05:02:57.642Z,3.05
2023-03-22T05:05:24.387Z,3.10
2023-03-22T05:07:51.102Z,2.97
2023-03-22T05:10:17.609Z,3.50
2023-03-22T05:12:44.103Z,2.95
2023-03-22T05:15:10.839Z,3.65
2023-03-22T05:17:37.589Z,3.22
2023-03-22T05:20:09.451Z,3.05
2023-03-22T05:22:40.498Z,3.10
2023-03-22T05:25:08.510Z,3.10
2023-03-22T05:27:35.129Z,2.53
2023-03-22T05:30:02.218Z,3.10
2023-03-22T05:32:29.282Z,2.72
2023-03-22T05:34:56.316Z,3.30
2023-03-22T05:37:22.909Z,3.20
2023-03-22T05:39:49.480Z,3.00
2023-03-22T05:42:15.973Z,3.13
2023-03-22T05:44:42.607Z,2.47
2023-03-22T05:47:09.156Z,2.60
2023-03-22T05:49:35.709Z,3.10
2023-03-22T05:52:06.019Z,3.47
2023-03-22T05:54:32.826Z,3.45
2023-03-22T05:56:59.378Z,2.70
2023-03-22T05:59:26.089Z,2.72
2023-03-22T06:01:52.672Z,2.75
2023-03-22T06:04:20.963Z,3.05
2023-03-22T06:06:47.547Z,3.47
2023-03-22T06:09:17.567Z,2.80
2023-03-22T06:11:44.561Z,2.67
2023-03-22T06:14:11.170Z,2.50
2023-03-22T06:16:37.769Z,2.63
2023-03-22T06:19:04.367Z,2.38
2023-03-22T06:21:31.005Z,2.15
2023-03-22T06:23:57.598Z,2.53
2023-03-22T06:26:24.218Z,2.35
2023-03-22T06:28:50.898Z,2.28
2023-03-22T06:31:17.517Z,2.60
2023-03-22T06:33:45.450Z,2.13
2023-03-22T06:36:12.058Z,2.30
2023-03-22T06:38:38.672Z,3.03
2023-03-22T06:41:05.360Z,2.53
2023-03-22T06:43:31.886Z,2.50
2023-03-22T06:45:58.466Z,2.10
2023-03-22T06:48:25.177Z,2.22
2023-03-22T06:50:51.763Z,2.40
2023-03-22T06:53:18.302Z,1.90
2023-03-22T06:55:44.865Z,2.42
2023-03-22T06:58:11.641Z,1.73
2023-03-22T07:00:39.157Z,1.83
2023-03-22T07:03:05.902Z,2.42
2023-03-22T07:05:32.425Z,1.92
2023-03-22T07:07:58.960Z,2.58
2023-03-22T07:10:25.533Z,1.83
2023-03-22T07:12:52.099Z,1.88
2023-03-22T07:15:20.082Z,1.95
2023-03-22T07:17:46.578Z,1.90
2023-03-22T07:20:13.125Z,1.83
2023-03-22T07:22:39.659Z,2.00
2023-03-22T07:25:06.478Z,2.03
2023-03-22T07:27:33.025Z,1.80
2023-03-22T07:29:59.591Z,2.35
2023-03-22T07:32:26.223Z,1.77
2023-03-22T07:34:52.788Z,1.85
2023-03-22T07:37:19.376Z,1.50
2023-03-22T07:39:45.953Z,1.60
2023-03-22T07:42:12.519Z,1.70
2023-03-22T07:44:39.082Z,1.77
2023-03-22T07:47:05.864Z,1.33
2023-03-22T07:49:32.426Z,1.73
2023-03-22T07:51:59.418Z,2.00
2023-03-22T07:54:33.519Z,2.10
2023-03-22T07:57:01.575Z,2.08
2023-03-22T07:59:28.247Z,2.53
2023-03-22T08:01:54.967Z,1.90
2023-03-22T08:04:22.488Z,2.55
2023-03-22T08:06:49.780Z,1.60
2023-03-22T08:09:16.437Z,2.20
2023-03-22T08:11:43.014Z,1.55
2023-03-22T08:14:09.556Z,1.70
2023-03-22T08:16:36.148Z,1.75
2023-03-22T08:19:02.748Z,1.80
2023-03-22T08:21:29.367Z,1.27
2023-03-22T08:23:55.960Z,2.00
2023-03-22T08:26:23.280Z,1.90
2023-03-22T08:28:49.825Z,1.98
2023-03-22T08:31:17.412Z,1.58
2023-03-22T08:33:44.483Z,1.52
2023-03-22T08:36:14.481Z,1.38
2023-03-22T08:38:42.471Z,1.65
2023-03-22T08:41:09.216Z,1.98
2023-03-22T08:43:35.785Z,1.98
2023-03-22T08:46:02.552Z,1.40
2023-03-22T08:48:30.658Z,1.88
2023-03-22T08:50:58.353Z,1.88
2023-03-22T08:53:24.970Z,1.60
2023-03-22T08:56:10.333Z,1.50
2023-03-22T08:58:36.863Z,2.15
2023-03-22T09:01:03.463Z,1.95
2023-03-22T09:03:30.092Z,2.22
2023-03-22T09:05:56.665Z,1.70
2023-03-22T09:08:23.175Z,1.60
2023-03-22T09:10:51.947Z,1.95
2023-03-22T09:13:19.545Z,1.48
2023-03-22T09:15:46.547Z,1.65
2023-03-22T09:18:13.388Z,1.67
2023-03-22T09:20:40.624Z,1.80
2023-03-22T09:23:07.353Z,1.48
2023-03-22T09:25:33.918Z,1.50
2023-03-22T09:28:00.458Z,1.52
2023-03-22T09:30:27.263Z,1.58
2023-03-22T09:32:54.072Z,1.50
2023-03-22T09:35:20.777Z,1.67
2023-03-22T09:37:49.273Z,1.63
2023-03-22T09:40:17.656Z,1.88
2023-03-22T09:42:51.338Z,1.48
2023-03-22T09:45:30.008Z,1.80
2023-03-22T09:47:59.021Z,1.38
2023-03-22T09:50:31.135Z,1.70
2023-03-22T09:52:58.446Z,1.42
2023-03-22T09:55:42.855Z,1.63
2023-03-22T09:58:36.790Z,1.52
2023-03-22T10:01:12.021Z,1.75
2023-03-22T10:04:05.053Z,1.95
2023-03-22T10:06:32.330Z,2.35
2023-03-22T10:08:58.810Z,1.98
2023-03-22T10:11:31.671Z,2.00
2023-03-22T10:14:04.007Z,1.27
2023-03-22T10:16:34.848Z,1.77
2023-03-22T10:19:17.239Z,2.33
2023-03-22T10:21:46.610Z,1.88
2023-03-22T10:24:20.220Z,2.58
2023-03-22T10:29:37.750Z,1.67
2023-03-22T10:32:15.232Z,1.48
2023-03-22T10:34:43.465Z,1.77
2023-03-22T10:37:16.557Z,1.80
2023-03-22T10:39:46.688Z,2.08
2023-03-22T10:42:16.526Z,1.67
2023-03-22T10:44:50.615Z,1.88
2023-03-22T10:47:24.400Z,3.05
2023-03-22T10:52:30.581Z,1.95
2023-03-22T10:55:01.265Z,1.95
2023-03-22T10:57:29.651Z,1.90
2023-03-22T10:59:57.282Z,1.77
2023-03-22T11:02:32.715Z,2.25
2023-03-22T11:05:05.364Z,2.20
2023-03-22T11:07:43.469Z,1.88
2023-03-22T11:10:09.918Z,1.85
2023-03-22T11:12:40.827Z,2.00
2023-03-22T11:15:19.318Z,1.70
2023-03-22T11:17:45.853Z,1.70
2023-03-22T11:20:17.424Z,1.42
2023-03-22T11:22:47.355Z,1.88
2023-03-22T11:25:18.700Z,1.58
2023-03-22T11:28:19.260Z,1.95
2023-03-22T11:31:06.284Z,2.05
2023-03-22T11:33:33.522Z,1.70
2023-03-22T11:36:03.458Z,2.15
2023-03-22T11:38:30.037Z,1.73
2023-03-22T11:41:01.544Z,2.00
2023-03-22T11:43:39.185Z,1.95
2023-03-22T11:46:08.517Z,2.60
2023-03-22T11:48:36.827Z,1.90
2023-03-22T11:51:10.784Z,2.13
2023-03-22T11:53:40.460Z,1.77
2023-03-22T11:56:10.898Z,2.17
2023-03-22T11:58:37.403Z,1.98
2023-03-22T12:01:05.983Z,2.63
2023-03-22T12:03:43.289Z,1.85
2023-03-22T12:06:32.236Z,2.55
2023-03-22T12:09:04.627Z,2.03
2023-03-22T12:11:37.787Z,2.00
2023-03-22T12:14:16.255Z,2.63
2023-03-22T12:16:57.810Z,2.63
2023-03-22T12:19:33.200Z,2.30
2023-03-22T12:22:00.605Z,2.65
2023-03-22T12:24:30.950Z,2.58
2023-03-22T12:27:11.012Z,2.47
2023-03-22T12:29:44.090Z,2.42
2023-03-22T12:32:21.858Z,2.50
2023-03-22T12:34:54.939Z,2.15
2023-03-22T12:37:30.066Z,2.10
2023-03-22T12:40:19.098Z,2.60
2023-03-22T12:43:00.910Z,2.53
2023-03-22T12:45:32.083Z,2.95
2023-03-22T12:48:21.483Z,2.40
2023-03-22T12:50:56.570Z,2.42
2023-03-22T12:53:28.328Z,2.40
2023-03-22T12:55:56.144Z,2.65
2023-03-22T12:58:25.789Z,2.50
2023-03-22T13:01:22.067Z,2.80
2023-03-22T13:03:53.622Z,2.33
2023-03-22T13:06:41.830Z,2.88
2023-03-22T13:09:27.912Z,2.38
2023-03-22T13:12:19.372Z,2.17
2023-03-22T13:14:48.883Z,2.15
2023-03-22T13:17:40.744Z,1.95
2023-03-22T13:20:07.752Z,1.92
2023-03-22T13:22:46.227Z,2.47
2023-03-22T13:25:13.416Z,2.67
2023-03-22T13:27:45.959Z,2.17
2023-03-22T13:30:21.831Z,2.00
2023-03-22T13:32:54.628Z,2.45
2023-03-22T13:35:28.622Z,2.28
2023-03-22T13:38:03.100Z,2.05
2023-03-22T13:40:55.783Z,2.15
2023-03-22T13:43:31.115Z,2.15
2023-03-22T13:46:09.762Z,2.35
2023-03-22T13:48:49.014Z,2.60
2023-03-22T13:51:30.259Z,2.30
2023-03-22T13:54:18.803Z,2.50
2023-03-22T13:57:00.487Z,2.30
2023-03-22T13:59:27.584Z,2.17
2023-03-22T14:01:57.475Z,2.65
2023-03-22T14:04:34.928Z,2.20
2023-03-22T14:07:40.099Z,2.72
2023-03-22T14:10:17.776Z,2.53
2023-03-22T14:13:28.720Z,2.20
2023-03-22T14:16:21.883Z,2.15
2023-03-22T14:18:49.891Z,2.17
2023-03-22T14:21:21.558Z,2.22
